sensor_id;sensor_type;location;lat;lon;timestamp;P1;durP1;ratioP1;P2;durP2;ratioP2
70026;SDS011;57506;50.092;15.804;2023-08-07T00:01:35;1.97;;;0.30;;
70026;SDS011;57506;50.092;15.804;2023-08-07T00:04:00;1.90;;;0.30;;
70026;SDS011;57506;50.092;15.804;2023-08-07T00:06:26;1.38;;;0.20;;
70026;SDS011;57506;50.092;15.804;2023-08-07T00:08:51;3.33;;;0.33;;
70026;SDS011;57506;50.092;15.804;2023-08-07T00:11:17;1.70;;;0.30;;
70026;SDS011;57506;50.092;15.804;2023-08-07T00:13:43;1.67;;;0.27;;
70026;SDS011;57506;50.092;15.804;2023-08-07T00:16:08;1.30;;;0.20;;
70026;SDS011;57506;50.092;15.804;2023-08-07T00:18:35;1.60;;;0.30;;
70026;SDS011;57506;50.092;15.804;2023-08-07T00:21:00;1.60;;;0.30;;
70026;SDS011;57506;50.092;15.804;2023-08-07T00:23:26;1.50;;;0.20;;
70026;SDS011;57506;50.092;15.804;2023-08-07T00:25:51;1.60;;;0.30;;
70026;SDS011;57506;50.092;15.804;2023-08-07T00:28:17;1.60;;;0.30;;
70026;SDS011;57506;50.092;15.804;2023-08-07T00:30:42;1.80;;;0.40;;
70026;SDS011;57506;50.092;15.804;2023-08-07T00:33:08;2.00;;;0.40;;
70026;SDS011;57506;50.092;15.804;2023-08-07T00:35:33;1.93;;;0.40;;
70026;SDS011;57506;50.092;15.804;2023-08-07T00:37:59;1.80;;;0.30;;
70026;SDS011;57506;50.092;15.804;2023-08-07T00:40:24;1.75;;;0.30;;
70026;SDS011;57506;50.092;15.804;2023-08-07T00:42:50;1.40;;;0.20;;
70026;SDS011;57506;50.092;15.804;2023-08-07T00:45:15;1.83;;;0.30;;
70026;SDS011;57506;50.092;15.804;2023-08-07T00:47:43;1.60;;;0.30;;
70026;SDS011;57506;50.092;15.804;2023-08-07T00:50:09;3.70;;;0.30;;
70026;SDS011;57506;50.092;15.804;2023-08-07T00:52:35;1.60;;;0.20;;
70026;SDS011;57506;50.092;15.804;2023-08-07T00:55:01;1.98;;;0.30;;
70026;SDS011;57506;50.092;15.804;2023-08-07T00:57:28;1.70;;;0.30;;
70026;SDS011;57506;50.092;15.804;2023-08-07T00:59:55;1.60;;;0.20;;
70026;SDS011;57506;50.092;15.804;2023-08-07T01:02:21;1.58;;;0.20;;
70026;SDS011;57506;50.092;15.804;2023-08-07T01:04:46;1.70;;;0.30;;
70026;SDS011;57506;50.092;15.804;2023-08-07T01:07:12;1.80;;;0.30;;
70026;SDS011;57506;50.092;15.804;2023-08-07T01:09:38;1.70;;;0.30;;
70026;SDS011;57506;50.092;15.804;2023-08-07T01:12:14;1.65;;;0.30;;
70026;SDS011;57506;50.092;15.804;2023-08-07T01:15:30;1.73;;;0.30;;
70026;SDS011;57506;50.092;15.804;2023-08-07T01:17:28;1.70;;;0.30;;
70026;SDS011;57506;50.092;15.804;2023-08-07T01:19:54;1.90;;;0.30;;
70026;SDS011;57506;50.092;15.804;2023-08-07T01:22:22;1.48;;;0.22;;
70026;SDS011;57506;50.092;15.804;2023-08-07T01:24:49;1.53;;;0.30;;
70026;SDS011;57506;50.092;15.804;2023-08-07T01:32:26;1.75;;;0.30;;
70026;SDS011;57506;50.092;15.804;2023-08-07T01:34:57;1.80;;;0.30;;
70026;SDS011;57506;50.092;15.804;2023-08-07T01:37:26;1.67;;;0.28;;
70026;SDS011;57506;50.092;15.804;2023-08-07T01:39:56;1.80;;;0.30;;
70026;SDS011;57506;50.092;15.804;2023-08-07T01:42:25;1.50;;;0.20;;
70026;SDS011;57506;50.092;15.804;2023-08-07T01:44:52;1.50;;;0.30;;
70026;SDS011;57506;50.092;15.804;2023-08-07T01:47:17;1.30;;;0.20;;
70026;SDS011;57506;50.092;15.804;2023-08-07T01:49:43;1.80;;;0.30;;
70026;SDS011;57506;50.092;15.804;2023-08-07T01:52:09;1.73;;;0.30;;
70026;SDS011;57506;50.092;15.804;2023-08-07T01:54:36;1.80;;;0.30;;
70026;SDS011;57506;50.092;15.804;2023-08-07T01:57:01;1.80;;;0.30;;
70026;SDS011;57506;50.092;15.804;2023-08-07T01:59:27;1.30;;;0.20;;
70026;SDS011;57506;50.092;15.804;2023-08-07T02:01:53;1.87;;;0.30;;
70026;SDS011;57506;50.092;15.804;2023-08-07T02:04:18;1.30;;;0.20;;
70026;SDS011;57506;50.092;15.804;2023-08-07T02:06:44;1.70;;;0.30;;
70026;SDS011;57506;50.092;15.804;2023-08-07T02:09:09;1.87;;;0.47;;
70026;SDS011;57506;50.092;15.804;2023-08-07T02:11:35;1.60;;;0.30;;
70026;SDS011;57506;50.092;15.804;2023-08-07T02:14:00;1.52;;;0.25;;
70026;SDS011;57506;50.092;15.804;2023-08-07T02:16:26;1.90;;;0.40;;
70026;SDS011;57506;50.092;15.804;2023-08-07T02:18:51;1.67;;;0.30;;
70026;SDS011;57506;50.092;15.804;2023-08-07T02:21:17;1.30;;;0.20;;
70026;SDS011;57506;50.092;15.804;2023-08-07T02:23:43;1.77;;;0.30;;
70026;SDS011;57506;50.092;15.804;2023-08-07T02:26:11;1.60;;;0.30;;
70026;SDS011;57506;50.092;15.804;2023-08-07T02:28:36;2.40;;;0.30;;
70026;SDS011;57506;50.092;15.804;2023-08-07T02:31:02;1.30;;;0.20;;
70026;SDS011;57506;50.092;15.804;2023-08-07T02:33:27;1.60;;;0.30;;
70026;SDS011;57506;50.092;15.804;2023-08-07T02:35:55;1.30;;;0.20;;
70026;SDS011;57506;50.092;15.804;2023-08-07T02:38:21;1.33;;;0.20;;
70026;SDS011;57506;50.092;15.804;2023-08-07T02:40:47;1.50;;;0.20;;
70026;SDS011;57506;50.092;15.804;2023-08-07T02:43:12;1.83;;;0.30;;
70026;SDS011;57506;50.092;15.804;2023-08-07T02:45:38;1.70;;;0.30;;
70026;SDS011;57506;50.092;15.804;2023-08-07T02:48:03;1.60;;;0.30;;
70026;SDS011;57506;50.092;15.804;2023-08-07T02:50:29;1.60;;;0.23;;
70026;SDS011;57506;50.092;15.804;2023-08-07T02:53:00;1.80;;;0.30;;
70026;SDS011;57506;50.092;15.804;2023-08-07T02:55:27;1.52;;;0.30;;
70026;SDS011;57506;50.092;15.804;2023-08-07T02:57:53;1.70;;;0.30;;
70026;SDS011;57506;50.092;15.804;2023-08-07T03:00:18;1.70;;;0.30;;
70026;SDS011;57506;50.092;15.804;2023-08-07T03:02:44;1.70;;;0.30;;
70026;SDS011;57506;50.092;15.804;2023-08-07T03:05:09;1.30;;;0.20;;
70026;SDS011;57506;50.092;15.804;2023-08-07T03:07:35;1.70;;;0.30;;
70026;SDS011;57506;50.092;15.804;2023-08-07T03:10:01;6.13;;;0.40;;
70026;SDS011;57506;50.092;15.804;2023-08-07T03:12:26;1.50;;;0.20;;
70026;SDS011;57506;50.092;15.804;2023-08-07T03:14:52;1.90;;;0.30;;
70026;SDS011;57506;50.092;15.804;2023-08-07T03:17:17;1.90;;;0.40;;
70026;SDS011;57506;50.092;15.804;2023-08-07T03:19:43;1.73;;;0.30;;
70026;SDS011;57506;50.092;15.804;2023-08-07T03:22:09;1.60;;;0.20;;
70026;SDS011;57506;50.092;15.804;2023-08-07T03:24:35;1.27;;;0.20;;
70026;SDS011;57506;50.092;15.804;2023-08-07T03:27:00;1.60;;;0.25;;
70026;SDS011;57506;50.092;15.804;2023-08-07T03:29:26;1.60;;;0.30;;
70026;SDS011;57506;50.092;15.804;2023-08-07T03:31:51;1.70;;;0.28;;
70026;SDS011;57506;50.092;15.804;2023-08-07T03:34:17;1.80;;;0.40;;
70026;SDS011;57506;50.092;15.804;2023-08-07T03:36:43;1.42;;;0.20;;
70026;SDS011;57506;50.092;15.804;2023-08-07T03:39:09;1.60;;;0.30;;
70026;SDS011;57506;50.092;15.804;2023-08-07T03:41:36;1.60;;;0.30;;
70026;SDS011;57506;50.092;15.804;2023-08-07T03:44:02;1.40;;;0.20;;
70026;SDS011;57506;50.092;15.804;2023-08-07T03:46:28;2.00;;;0.47;;
70026;SDS011;57506;50.092;15.804;2023-08-07T03:48:53;1.83;;;0.30;;
70026;SDS011;57506;50.092;15.804;2023-08-07T03:51:19;1.30;;;0.20;;
70026;SDS011;57506;50.092;15.804;2023-08-07T03:53:44;1.80;;;0.30;;
70026;SDS011;57506;50.092;15.804;2023-08-07T03:56:10;1.60;;;0.30;;
70026;SDS011;57506;50.092;15.804;2023-08-07T03:58:35;1.90;;;0.40;;
70026;SDS011;57506;50.092;15.804;2023-08-07T04:01:01;1.60;;;0.23;;
70026;SDS011;57506;50.092;15.804;2023-08-07T04:03:26;1.88;;;0.47;;
70026;SDS011;57506;50.092;15.804;2023-08-07T04:05:53;1.80;;;0.30;;
70026;SDS011;57506;50.092;15.804;2023-08-07T04:08:19;1.58;;;0.35;;
70026;SDS011;57506;50.092;15.804;2023-08-07T04:10:56;1.63;;;0.30;;
70026;SDS011;57506;50.092;15.804;2023-08-07T04:13:23;1.60;;;0.30;;
70026;SDS011;57506;50.092;15.804;2023-08-07T04:15:49;1.90;;;0.30;;
70026;SDS011;57506;50.092;15.804;2023-08-07T04:18:14;1.70;;;0.30;;
70026;SDS011;57506;50.092;15.804;2023-08-07T04:20:40;1.50;;;0.20;;
70026;SDS011;57506;50.092;15.804;2023-08-07T04:23:06;1.90;;;0.30;;
70026;SDS011;57506;50.092;15.804;2023-08-07T04:25:31;1.75;;;0.40;;
70026;SDS011;57506;50.092;15.804;2023-08-07T04:27:57;1.67;;;0.30;;
70026;SDS011;57506;50.092;15.804;2023-08-07T04:30:22;1.90;;;0.40;;
70026;SDS011;57506;50.092;15.804;2023-08-07T04:32:48;1.80;;;0.32;;
70026;SDS011;57506;50.092;15.804;2023-08-07T04:35:14;1.70;;;0.30;;
70026;SDS011;57506;50.092;15.804;2023-08-07T04:37:39;1.92;;;0.47;;
70026;SDS011;57506;50.092;15.804;2023-08-07T04:40:05;3.17;;;0.70;;
70026;SDS011;57506;50.092;15.804;2023-08-07T04:42:33;1.75;;;0.30;;
70026;SDS011;57506;50.092;15.804;2023-08-07T04:44:59;1.80;;;0.30;;
70026;SDS011;57506;50.092;15.804;2023-08-07T04:47:24;1.83;;;0.30;;
70026;SDS011;57506;50.092;15.804;2023-08-07T04:49:50;2.20;;;0.50;;
70026;SDS011;57506;50.092;15.804;2023-08-07T04:52:15;1.97;;;0.50;;
70026;SDS011;57506;50.092;15.804;2023-08-07T04:54:41;1.77;;;0.30;;
70026;SDS011;57506;50.092;15.804;2023-08-07T04:57:06;2.00;;;0.40;;
70026;SDS011;57506;50.092;15.804;2023-08-07T04:59:32;1.80;;;0.30;;
70026;SDS011;57506;50.092;15.804;2023-08-07T05:01:58;4.50;;;0.83;;
70026;SDS011;57506;50.092;15.804;2023-08-07T05:04:23;1.80;;;0.30;;
70026;SDS011;57506;50.092;15.804;2023-08-07T05:06:49;1.80;;;0.30;;
70026;SDS011;57506;50.092;15.804;2023-08-07T05:09:15;1.70;;;0.30;;
70026;SDS011;57506;50.092;15.804;2023-08-07T05:11:42;1.53;;;0.30;;
70026;SDS011;57506;50.092;15.804;2023-08-07T05:14:07;1.88;;;0.40;;
70026;SDS011;57506;50.092;15.804;2023-08-07T05:16:33;1.70;;;0.33;;
70026;SDS011;57506;50.092;15.804;2023-08-07T05:18:58;1.73;;;0.40;;
70026;SDS011;57506;50.092;15.804;2023-08-07T05:21:24;1.85;;;0.32;;
70026;SDS011;57506;50.092;15.804;2023-08-07T05:23:49;1.73;;;0.30;;
70026;SDS011;57506;50.092;15.804;2023-08-07T05:26:18;1.40;;;0.20;;
70026;SDS011;57506;50.092;15.804;2023-08-07T05:28:44;1.80;;;0.30;;
70026;SDS011;57506;50.092;15.804;2023-08-07T05:31:09;2.03;;;0.40;;
70026;SDS011;57506;50.092;15.804;2023-08-07T05:33:35;1.67;;;0.30;;
70026;SDS011;57506;50.092;15.804;2023-08-07T05:36:00;2.97;;;0.85;;
70026;SDS011;57506;50.092;15.804;2023-08-07T05:38:26;3.17;;;0.60;;
70026;SDS011;57506;50.092;15.804;2023-08-07T05:40:52;1.70;;;0.30;;
70026;SDS011;57506;50.092;15.804;2023-08-07T05:43:17;2.33;;;0.60;;
70026;SDS011;57506;50.092;15.804;2023-08-07T05:45:43;2.87;;;0.87;;
70026;SDS011;57506;50.092;15.804;2023-08-07T05:48:10;3.35;;;0.73;;
70026;SDS011;57506;50.092;15.804;2023-08-07T05:50:35;2.00;;;0.50;;
70026;SDS011;57506;50.092;15.804;2023-08-07T05:53:01;2.33;;;0.40;;
70026;SDS011;57506;50.092;15.804;2023-08-07T05:55:27;2.40;;;0.68;;
70026;SDS011;57506;50.092;15.804;2023-08-07T05:57:52;2.03;;;0.40;;
70026;SDS011;57506;50.092;15.804;2023-08-07T06:00:18;3.47;;;0.60;;
70026;SDS011;57506;50.092;15.804;2023-08-07T06:02:44;2.88;;;0.60;;
70026;SDS011;57506;50.092;15.804;2023-08-07T06:05:10;1.83;;;0.33;;
70026;SDS011;57506;50.092;15.804;2023-08-07T06:07:39;1.83;;;0.47;;
70026;SDS011;57506;50.092;15.804;2023-08-07T06:10:05;6.80;;;0.60;;
70026;SDS011;57506;50.092;15.804;2023-08-07T06:12:31;2.00;;;0.30;;
70026;SDS011;57506;50.092;15.804;2023-08-07T06:14:56;2.88;;;0.60;;
70026;SDS011;57506;50.092;15.804;2023-08-07T06:17:22;3.03;;;0.70;;
70026;SDS011;57506;50.092;15.804;2023-08-07T06:19:47;2.42;;;0.40;;
70026;SDS011;57506;50.092;15.804;2023-08-07T06:22:13;2.20;;;0.50;;
70026;SDS011;57506;50.092;15.804;2023-08-07T06:24:39;2.22;;;0.30;;
70026;SDS011;57506;50.092;15.804;2023-08-07T06:27:04;4.27;;;0.70;;
70026;SDS011;57506;50.092;15.804;2023-08-07T06:29:30;3.45;;;0.40;;
70026;SDS011;57506;50.092;15.804;2023-08-07T06:31:56;1.73;;;0.30;;
70026;SDS011;57506;50.092;15.804;2023-08-07T06:34:21;1.70;;;0.30;;
70026;SDS011;57506;50.092;15.804;2023-08-07T06:36:47;1.60;;;0.30;;
70026;SDS011;57506;50.092;15.804;2023-08-07T06:39:15;1.93;;;0.40;;
70026;SDS011;57506;50.092;15.804;2023-08-07T06:41:41;2.40;;;0.60;;
70026;SDS011;57506;50.092;15.804;2023-08-07T06:44:06;1.80;;;0.30;;
70026;SDS011;57506;50.092;15.804;2023-08-07T06:46:32;1.90;;;0.50;;
70026;SDS011;57506;50.092;15.804;2023-08-07T06:48:57;1.63;;;0.30;;
70026;SDS011;57506;50.092;15.804;2023-08-07T06:51:23;1.80;;;0.32;;
70026;SDS011;57506;50.092;15.804;2023-08-07T06:53:49;2.10;;;0.50;;
70026;SDS011;57506;50.092;15.804;2023-08-07T06:56:14;2.37;;;0.50;;
70026;SDS011;57506;50.092;15.804;2023-08-07T06:58:40;2.05;;;0.47;;
70026;SDS011;57506;50.092;15.804;2023-08-07T07:01:06;2.22;;;0.57;;
70026;SDS011;57506;50.092;15.804;2023-08-07T07:03:31;1.80;;;0.30;;
70026;SDS011;57506;50.092;15.804;2023-08-07T07:05:57;1.90;;;0.50;;
70026;SDS011;57506;50.092;15.804;2023-08-07T07:08:23;2.80;;;0.73;;
70026;SDS011;57506;50.092;15.804;2023-08-07T07:10:48;4.03;;;1.40;;
70026;SDS011;57506;50.092;15.804;2023-08-07T07:13:14;2.25;;;0.52;;
70026;SDS011;57506;50.092;15.804;2023-08-07T07:15:40;3.47;;;1.17;;
70026;SDS011;57506;50.092;15.804;2023-08-07T07:18:06;3.20;;;1.10;;
70026;SDS011;57506;50.092;15.804;2023-08-07T07:20:32;2.97;;;1.30;;
70026;SDS011;57506;50.092;15.804;2023-08-07T07:22:58;2.87;;;0.90;;
70026;SDS011;57506;50.092;15.804;2023-08-07T07:25:24;3.03;;;1.35;;
70026;SDS011;57506;50.092;15.804;2023-08-07T07:27:49;2.90;;;0.83;;
70026;SDS011;57506;50.092;15.804;2023-08-07T07:30:15;8.57;;;0.82;;
70026;SDS011;57506;50.092;15.804;2023-08-07T07:32:41;2.57;;;0.90;;
70026;SDS011;57506;50.092;15.804;2023-08-07T07:35:06;5.13;;;1.35;;
70026;SDS011;57506;50.092;15.804;2023-08-07T07:37:32;7.27;;;1.50;;
70026;SDS011;57506;50.092;15.804;2023-08-07T07:39:59;3.10;;;1.23;;
70026;SDS011;57506;50.092;15.804;2023-08-07T07:42:24;3.78;;;1.50;;
70026;SDS011;57506;50.092;15.804;2023-08-07T07:44:50;2.30;;;0.80;;
70026;SDS011;57506;50.092;15.804;2023-08-07T07:47:16;3.53;;;1.42;;
70026;SDS011;57506;50.092;15.804;2023-08-07T07:49:45;2.70;;;1.03;;
70026;SDS011;57506;50.092;15.804;2023-08-07T07:52:12;3.13;;;0.90;;
70026;SDS011;57506;50.092;15.804;2023-08-07T07:54:38;3.20;;;1.20;;
70026;SDS011;57506;50.092;15.804;2023-08-07T07:57:04;4.30;;;1.97;;
70026;SDS011;57506;50.092;15.804;2023-08-07T07:59:30;3.53;;;1.75;;
70026;SDS011;57506;50.092;15.804;2023-08-07T08:01:56;6.33;;;2.30;;
70026;SDS011;57506;50.092;15.804;2023-08-07T08:04:22;3.67;;;1.42;;
70026;SDS011;57506;50.092;15.804;2023-08-07T08:06:48;3.95;;;2.05;;
70026;SDS011;57506;50.092;15.804;2023-08-07T08:09:13;4.73;;;2.20;;
70026;SDS011;57506;50.092;15.804;2023-08-07T08:11:40;4.10;;;1.77;;
70026;SDS011;57506;50.092;15.804;2023-08-07T08:14:06;3.53;;;1.83;;
70026;SDS011;57506;50.092;15.804;2023-08-07T08:16:32;3.33;;;0.67;;
70026;SDS011;57506;50.092;15.804;2023-08-07T08:18:57;3.78;;;2.00;;
70026;SDS011;57506;50.092;15.804;2023-08-07T08:21:23;4.03;;;1.60;;
70026;SDS011;57506;50.092;15.804;2023-08-07T08:23:50;2.75;;;1.00;;
70026;SDS011;57506;50.092;15.804;2023-08-07T08:26:16;4.68;;;1.83;;
70026;SDS011;57506;50.092;15.804;2023-08-07T08:28:42;2.30;;;0.87;;
70026;SDS011;57506;50.092;15.804;2023-08-07T08:31:08;3.38;;;1.15;;
70026;SDS011;57506;50.092;15.804;2023-08-07T08:33:34;2.80;;;0.83;;
70026;SDS011;57506;50.092;15.804;2023-08-07T08:35:59;1.92;;;0.47;;
70026;SDS011;57506;50.092;15.804;2023-08-07T08:38:25;3.92;;;1.52;;
70026;SDS011;57506;50.092;15.804;2023-08-07T08:40:57;2.50;;;0.70;;
70026;SDS011;57506;50.092;15.804;2023-08-07T08:43:29;3.30;;;0.90;;
70026;SDS011;57506;50.092;15.804;2023-08-07T08:46:01;2.28;;;0.63;;
70026;SDS011;57506;50.092;15.804;2023-08-07T08:48:29;2.63;;;0.73;;
70026;SDS011;57506;50.092;15.804;2023-08-07T08:50:59;2.60;;;0.85;;
70026;SDS011;57506;50.092;15.804;2023-08-07T08:53:26;3.20;;;1.00;;
70026;SDS011;57506;50.092;15.804;2023-08-07T08:55:52;5.03;;;1.43;;
70026;SDS011;57506;50.092;15.804;2023-08-07T08:58:18;2.63;;;0.90;;
70026;SDS011;57506;50.092;15.804;2023-08-07T09:00:45;5.80;;;1.30;;
70026;SDS011;57506;50.092;15.804;2023-08-07T09:03:11;3.10;;;1.13;;
70026;SDS011;57506;50.092;15.804;2023-08-07T09:05:37;4.25;;;1.70;;
70026;SDS011;57506;50.092;15.804;2023-08-07T09:08:03;12.05;;;1.50;;
70026;SDS011;57506;50.092;15.804;2023-08-07T09:10:30;2.58;;;0.77;;
70026;SDS011;57506;50.092;15.804;2023-08-07T09:13:00;5.70;;;1.65;;
70026;SDS011;57506;50.092;15.804;2023-08-07T09:15:32;4.47;;;1.73;;
70026;SDS011;57506;50.092;15.804;2023-08-07T09:17:59;3.33;;;1.50;;
70026;SDS011;57506;50.092;15.804;2023-08-07T09:20:26;3.53;;;1.60;;
70026;SDS011;57506;50.092;15.804;2023-08-07T09:22:52;4.70;;;2.10;;
70026;SDS011;57506;50.092;15.804;2023-08-07T09:25:27;2.93;;;1.10;;
70026;SDS011;57506;50.092;15.804;2023-08-07T09:27:57;5.72;;;1.73;;
70026;SDS011;57506;50.092;15.804;2023-08-07T09:30:26;7.00;;;2.00;;
70026;SDS011;57506;50.092;15.804;2023-08-07T09:32:53;3.53;;;1.00;;
70026;SDS011;57506;50.092;15.804;2023-08-07T09:35:22;4.78;;;1.48;;
70026;SDS011;57506;50.092;15.804;2023-08-07T09:37:48;3.70;;;1.67;;
70026;SDS011;57506;50.092;15.804;2023-08-07T09:40:14;4.53;;;2.13;;
70026;SDS011;57506;50.092;15.804;2023-08-07T09:42:41;5.05;;;1.70;;
70026;SDS011;57506;50.092;15.804;2023-08-07T09:50:27;12.05;;;1.45;;
70026;SDS011;57506;50.092;15.804;2023-08-07T09:52:53;2.87;;;1.00;;
70026;SDS011;57506;50.092;15.804;2023-08-07T09:55:20;3.15;;;1.10;;
70026;SDS011;57506;50.092;15.804;2023-08-07T09:57:47;3.17;;;1.38;;
70026;SDS011;57506;50.092;15.804;2023-08-07T10:00:15;7.10;;;2.13;;
70026;SDS011;57506;50.092;15.804;2023-08-07T10:02:43;5.00;;;1.20;;
70026;SDS011;57506;50.092;15.804;2023-08-07T10:05:12;3.80;;;1.57;;
70026;SDS011;57506;50.092;15.804;2023-08-07T10:07:39;6.30;;;1.10;;
70026;SDS011;57506;50.092;15.804;2023-08-07T10:10:09;2.00;;;0.55;;
70026;SDS011;57506;50.092;15.804;2023-08-07T10:12:36;4.75;;;2.10;;
70026;SDS011;57506;50.092;15.804;2023-08-07T10:15:03;6.10;;;2.17;;
70026;SDS011;57506;50.092;15.804;2023-08-07T10:17:29;3.57;;;1.67;;
70026;SDS011;57506;50.092;15.804;2023-08-07T10:19:55;3.15;;;1.38;;
70026;SDS011;57506;50.092;15.804;2023-08-07T10:22:25;4.13;;;1.95;;
70026;SDS011;57506;50.092;15.804;2023-08-07T10:24:52;3.45;;;1.42;;
70026;SDS011;57506;50.092;15.804;2023-08-07T10:27:19;5.93;;;1.85;;
70026;SDS011;57506;50.092;15.804;2023-08-07T10:29:48;2.97;;;1.03;;
70026;SDS011;57506;50.092;15.804;2023-08-07T10:32:17;3.97;;;1.98;;
70026;SDS011;57506;50.092;15.804;2023-08-07T10:34:51;4.40;;;1.48;;
70026;SDS011;57506;50.092;15.804;2023-08-07T10:40:09;2.67;;;1.00;;
70026;SDS011;57506;50.092;15.804;2023-08-07T10:45:22;3.80;;;1.70;;
70026;SDS011;57506;50.092;15.804;2023-08-07T10:50:31;4.85;;;2.13;;
70026;SDS011;57506;50.092;15.804;2023-08-07T10:53:01;6.75;;;2.50;;
70026;SDS011;57506;50.092;15.804;2023-08-07T10:55:30;5.27;;;2.93;;
70026;SDS011;57506;50.092;15.804;2023-08-07T10:57:57;4.47;;;2.50;;
70026;SDS011;57506;50.092;15.804;2023-08-07T11:00:27;3.28;;;1.48;;
70026;SDS011;57506;50.092;15.804;2023-08-07T11:02:53;3.13;;;1.10;;
70026;SDS011;57506;50.092;15.804;2023-08-07T11:05:19;4.25;;;1.60;;
70026;SDS011;57506;50.092;15.804;2023-08-07T11:07:45;4.53;;;2.27;;
70026;SDS011;57506;50.092;15.804;2023-08-07T11:10:13;3.13;;;1.45;;
70026;SDS011;57506;50.092;15.804;2023-08-07T11:12:42;1.95;;;0.43;;
70026;SDS011;57506;50.092;15.804;2023-08-07T11:15:11;2.90;;;1.08;;
70026;SDS011;57506;50.092;15.804;2023-08-07T11:17:39;2.40;;;0.70;;
70026;SDS011;57506;50.092;15.804;2023-08-07T11:20:06;4.00;;;1.33;;
70026;SDS011;57506;50.092;15.804;2023-08-07T11:22:32;1.88;;;0.50;;
70026;SDS011;57506;50.092;15.804;2023-08-07T11:24:58;4.50;;;1.75;;
70026;SDS011;57506;50.092;15.804;2023-08-07T11:27:24;2.93;;;0.90;;
70026;SDS011;57506;50.092;15.804;2023-08-07T11:29:50;3.95;;;0.80;;
70026;SDS011;57506;50.092;15.804;2023-08-07T11:32:16;2.20;;;0.63;;
70026;SDS011;57506;50.092;15.804;2023-08-07T11:34:48;5.38;;;1.40;;
70026;SDS011;57506;50.092;15.804;2023-08-07T11:37:15;2.55;;;0.80;;
70026;SDS011;57506;50.092;15.804;2023-08-07T11:39:42;3.33;;;1.40;;
70026;SDS011;57506;50.092;15.804;2023-08-07T11:42:08;3.50;;;1.33;;
70026;SDS011;57506;50.092;15.804;2023-08-07T11:44:33;2.67;;;0.93;;
70026;SDS011;57506;50.092;15.804;2023-08-07T11:46:59;2.63;;;0.77;;
70026;SDS011;57506;50.092;15.804;2023-08-07T11:49:25;2.13;;;0.63;;
70026;SDS011;57506;50.092;15.804;2023-08-07T11:55:14;5.28;;;2.13;;
70026;SDS011;57506;50.092;15.804;2023-08-07T11:57:40;4.53;;;1.38;;
70026;SDS011;57506;50.092;15.804;2023-08-07T12:00:07;3.13;;;1.20;;
70026;SDS011;57506;50.092;15.804;2023-08-07T12:02:43;6.15;;;2.05;;
70026;SDS011;57506;50.092;15.804;2023-08-07T12:05:10;3.78;;;1.60;;
70026;SDS011;57506;50.092;15.804;2023-08-07T12:07:39;2.40;;;0.70;;
70026;SDS011;57506;50.092;15.804;2023-08-07T12:10:11;3.30;;;1.23;;
70026;SDS011;57506;50.092;15.804;2023-08-07T12:12:37;3.40;;;1.27;;
70026;SDS011;57506;50.092;15.804;2023-08-07T12:15:06;2.80;;;1.13;;
70026;SDS011;57506;50.092;15.804;2023-08-07T12:17:33;2.72;;;1.13;;
70026;SDS011;57506;50.092;15.804;2023-08-07T12:20:00;3.38;;;1.40;;
70026;SDS011;57506;50.092;15.804;2023-08-07T12:22:29;2.80;;;1.10;;
70026;SDS011;57506;50.092;15.804;2023-08-07T12:24:54;2.38;;;0.75;;
70026;SDS011;57506;50.092;15.804;2023-08-07T12:27:20;2.78;;;0.80;;
70026;SDS011;57506;50.092;15.804;2023-08-07T12:29:46;2.47;;;0.70;;
70026;SDS011;57506;50.092;15.804;2023-08-07T12:32:11;2.40;;;0.80;;
70026;SDS011;57506;50.092;15.804;2023-08-07T12:34:37;2.50;;;0.70;;
70026;SDS011;57506;50.092;15.804;2023-08-07T12:37:03;2.30;;;0.70;;
70026;SDS011;57506;50.092;15.804;2023-08-07T12:39:29;2.40;;;0.82;;
70026;SDS011;57506;50.092;15.804;2023-08-07T12:41:55;2.63;;;0.85;;
70026;SDS011;57506;50.092;15.804;2023-08-07T12:44:21;5.20;;;1.10;;
70026;SDS011;57506;50.092;15.804;2023-08-07T12:46:47;2.03;;;0.50;;
70026;SDS011;57506;50.092;15.804;2023-08-07T12:49:13;2.40;;;0.68;;
70026;SDS011;57506;50.092;15.804;2023-08-07T12:51:40;2.13;;;0.50;;
70026;SDS011;57506;50.092;15.804;2023-08-07T12:54:08;2.53;;;0.70;;
70026;SDS011;57506;50.092;15.804;2023-08-07T12:56:34;5.32;;;0.93;;
70026;SDS011;57506;50.092;15.804;2023-08-07T12:58:59;4.87;;;1.20;;
70026;SDS011;57506;50.092;15.804;2023-08-07T13:01:26;2.67;;;0.90;;
70026;SDS011;57506;50.092;15.804;2023-08-07T13:03:51;3.10;;;1.20;;
70026;SDS011;57506;50.092;15.804;2023-08-07T13:06:18;2.80;;;1.10;;
70026;SDS011;57506;50.092;15.804;2023-08-07T13:08:44;4.93;;;0.93;;
70026;SDS011;57506;50.092;15.804;2023-08-07T13:11:11;3.15;;;1.20;;
70026;SDS011;57506;50.092;15.804;2023-08-07T13:13:37;2.50;;;0.80;;
70026;SDS011;57506;50.092;15.804;2023-08-07T13:16:04;2.28;;;0.80;;
70026;SDS011;57506;50.092;15.804;2023-08-07T13:18:32;2.40;;;0.80;;
70026;SDS011;57506;50.092;15.804;2023-08-07T13:20:58;2.70;;;0.95;;
70026;SDS011;57506;50.092;15.804;2023-08-07T13:23:24;2.90;;;1.00;;
70026;SDS011;57506;50.092;15.804;2023-08-07T13:25:50;2.97;;;1.27;;
70026;SDS011;57506;50.092;15.804;2023-08-07T13:28:15;3.33;;;1.20;;
70026;SDS011;57506;50.092;15.804;2023-08-07T13:30:43;2.33;;;0.70;;
70026;SDS011;57506;50.092;15.804;2023-08-07T13:33:08;2.70;;;0.80;;
70026;SDS011;57506;50.092;15.804;2023-08-07T13:35:34;1.85;;;0.40;;
70026;SDS011;57506;50.092;15.804;2023-08-07T13:38:00;2.72;;;0.77;;
70026;SDS011;57506;50.092;15.804;2023-08-07T13:40:33;2.20;;;0.63;;
70026;SDS011;57506;50.092;15.804;2023-08-07T13:42:58;2.20;;;0.68;;
70026;SDS011;57506;50.092;15.804;2023-08-07T13:45:32;2.63;;;0.70;;
70026;SDS011;57506;50.092;15.804;2023-08-07T13:47:58;2.22;;;0.50;;
70026;SDS011;57506;50.092;15.804;2023-08-07T13:50:24;2.13;;;0.70;;
70026;SDS011;57506;50.092;15.804;2023-08-07T13:52:50;2.00;;;0.40;;
70026;SDS011;57506;50.092;15.804;2023-08-07T13:55:15;2.23;;;0.60;;
70026;SDS011;57506;50.092;15.804;2023-08-07T13:57:42;2.88;;;0.80;;
70026;SDS011;57506;50.092;15.804;2023-08-07T14:00:08;2.50;;;0.80;;
70026;SDS011;57506;50.092;15.804;2023-08-07T14:02:34;2.07;;;0.47;;
70026;SDS011;57506;50.092;15.804;2023-08-07T14:05:00;2.40;;;0.55;;
70026;SDS011;57506;50.092;15.804;2023-08-07T14:07:26;3.65;;;0.40;;
70026;SDS011;57506;50.092;15.804;2023-08-07T14:09:51;2.20;;;0.50;;
70026;SDS011;57506;50.092;15.804;2023-08-07T14:12:17;2.70;;;0.70;;
70026;SDS011;57506;50.092;15.804;2023-08-07T14:14:42;1.67;;;0.38;;
70026;SDS011;57506;50.092;15.804;2023-08-07T14:17:08;2.10;;;0.70;;
70026;SDS011;57506;50.092;15.804;2023-08-07T14:19:33;1.75;;;0.40;;
70026;SDS011;57506;50.092;15.804;2023-08-07T14:21:59;1.90;;;0.40;;
70026;SDS011;57506;50.092;15.804;2023-08-07T14:24:25;2.20;;;0.70;;
70026;SDS011;57506;50.092;15.804;2023-08-07T14:26:51;2.13;;;0.60;;
70026;SDS011;57506;50.092;15.804;2023-08-07T14:29:16;1.87;;;0.40;;
70026;SDS011;57506;50.092;15.804;2023-08-07T14:31:42;1.87;;;0.40;;
70026;SDS011;57506;50.092;15.804;2023-08-07T14:34:07;2.10;;;0.60;;
70026;SDS011;57506;50.092;15.804;2023-08-07T14:36:33;2.83;;;0.83;;
70026;SDS011;57506;50.092;15.804;2023-08-07T14:38:59;2.93;;;0.30;;
70026;SDS011;57506;50.092;15.804;2023-08-07T14:41:24;4.13;;;0.60;;
70026;SDS011;57506;50.092;15.804;2023-08-07T14:43:50;2.27;;;0.67;;
70026;SDS011;57506;50.092;15.804;2023-08-07T14:46:16;2.17;;;0.57;;
70026;SDS011;57506;50.092;15.804;2023-08-07T14:48:43;3.47;;;0.80;;
70026;SDS011;57506;50.092;15.804;2023-08-07T14:51:08;2.30;;;0.87;;